sensor_id;sensor_type;location;lat;lon;timestamp;temperature;humidity
3360;DHT22;1693;49.602;11.046;2023-07-28T00:02:12;16.60;99.90
3360;DHT22;1693;49.602;11.046;2023-07-28T00:04:38;16.60;99.90
3360;DHT22;1693;49.602;11.046;2023-07-28T00:07:06;16.70;99.90
3360;DHT22;1693;49.602;11.046;2023-07-28T00:09:32;16.80;99.90
3360;DHT22;1693;49.602;11.046;2023-07-28T00:12:00;16.80;99.90
3360;DHT22;1693;49.602;11.046;2023-07-28T00:14:27;16.90;99.90
3360;DHT22;1693;49.602;11.046;2023-07-28T00:16:56;16.80;99.90
3360;DHT22;1693;49.602;11.046;2023-07-28T00:19:24;16.90;99.90
3360;DHT22;1693;49.602;11.046;2023-07-28T00:21:51;16.90;99.90
3360;DHT22;1693;49.602;11.046;2023-07-28T00:24:18;16.90;99.90
3360;DHT22;1693;49.602;11.046;2023-07-28T00:26:45;16.80;99.90
3360;DHT22;1693;49.602;11.046;2023-07-28T00:29:13;16.90;99.90
3360;DHT22;1693;49.602;11.046;2023-07-28T00:31:39;16.90;99.90
3360;DHT22;1693;49.602;11.046;2023-07-28T00:34:06;16.90;99.90
3360;DHT22;1693;49.602;11.046;2023-07-28T00:36:35;16.90;99.90
3360;DHT22;1693;49.602;11.046;2023-07-28T00:39:02;17.00;99.90
3360;DHT22;1693;49.602;11.046;2023-07-28T00:41:29;17.00;99.90
3360;DHT22;1693;49.602;11.046;2023-07-28T00:43:56;17.00;99.90
3360;DHT22;1693;49.602;11.046;2023-07-28T00:46:23;17.00;99.90
3360;DHT22;1693;49.602;11.046;2023-07-28T00:48:50;17.00;99.90
3360;DHT22;1693;49.602;11.046;2023-07-28T00:51:17;17.00;99.90
3360;DHT22;1693;49.602;11.046;2023-07-28T00:53:46;17.00;99.90
3360;DHT22;1693;49.602;11.046;2023-07-28T00:56:14;17.00;99.90
3360;DHT22;1693;49.602;11.046;2023-07-28T00:58:41;17.10;99.90
3360;DHT22;1693;49.602;11.046;2023-07-28T01:01:10;17.10;99.90
3360;DHT22;1693;49.602;11.046;2023-07-28T01:03:38;17.10;99.90
3360;DHT22;1693;49.602;11.046;2023-07-28T01:06:14;17.10;99.90
3360;DHT22;1693;49.602;11.046;2023-07-28T01:08:52;17.10;99.90
3360;DHT22;1693;49.602;11.046;2023-07-28T01:11:19;17.00;99.90
3360;DHT22;1693;49.602;11.046;2023-07-28T01:13:46;17.00;99.90
3360;DHT22;1693;49.602;11.046;2023-07-28T01:16:13;17.10;99.90
3360;DHT22;1693;49.602;11.046;2023-07-28T01:18:40;17.10;99.90
3360;DHT22;1693;49.602;11.046;2023-07-28T01:21:12;17.10;99.90
3360;DHT22;1693;49.602;11.046;2023-07-28T01:23:48;17.10;99.90
3360;DHT22;1693;49.602;11.046;2023-07-28T01:26:27;17.10;99.90
3360;DHT22;1693;49.602;11.046;2023-07-28T01:28:55;17.00;99.90
3360;DHT22;1693;49.602;11.046;2023-07-28T01:31:22;17.00;99.90
3360;DHT22;1693;49.602;11.046;2023-07-28T01:33:49;17.00;99.90
3360;DHT22;1693;49.602;11.046;2023-07-28T01:36:16;17.00;99.90
3360;DHT22;1693;49.602;11.046;2023-07-28T01:38:43;17.00;99.90
3360;DHT22;1693;49.602;11.046;2023-07-28T01:41:10;17.00;99.90
3360;DHT22;1693;49.602;11.046;2023-07-28T01:43:38;17.00;99.90
3360;DHT22;1693;49.602;11.046;2023-07-28T01:46:05;17.00;99.90
3360;DHT22;1693;49.602;11.046;2023-07-28T01:48:32;17.00;99.90
3360;DHT22;1693;49.602;11.046;2023-07-28T01:51:00;17.10;99.90
3360;DHT22;1693;49.602;11.046;2023-07-28T01:53:27;17.10;99.90
3360;DHT22;1693;49.602;11.046;2023-07-28T01:55:53;17.10;99.90
3360;DHT22;1693;49.602;11.046;2023-07-28T01:58:20;17.10;99.90
3360;DHT22;1693;49.602;11.046;2023-07-28T02:01:14;17.10;99.90
3360;DHT22;1693;49.602;11.046;2023-07-28T02:03:45;17.10;99.90
3360;DHT22;1693;49.602;11.046;2023-07-28T02:06:12;17.10;99.90
3360;DHT22;1693;49.602;11.046;2023-07-28T02:08:41;17.10;99.90
3360;DHT22;1693;49.602;11.046;2023-07-28T02:11:08;17.00;99.90
3360;DHT22;1693;49.602;11.046;2023-07-28T02:13:35;17.00;99.90
3360;DHT22;1693;49.602;11.046;2023-07-28T02:16:02;16.90;99.90
3360;DHT22;1693;49.602;11.046;2023-07-28T02:18:30;16.90;99.90
3360;DHT22;1693;49.602;11.046;2023-07-28T02:20:57;16.90;99.90
3360;DHT22;1693;49.602;11.046;2023-07-28T02:23:24;16.90;99.90
3360;DHT22;1693;49.602;11.046;2023-07-28T02:25:51;16.90;99.90
3360;DHT22;1693;49.602;11.046;2023-07-28T02:28:18;16.90;99.90
3360;DHT22;1693;49.602;11.046;2023-07-28T02:30:45;16.90;99.90
3360;DHT22;1693;49.602;11.046;2023-07-28T02:33:12;17.00;99.90
3360;DHT22;1693;49.602;11.046;2023-07-28T02:35:41;17.00;99.90
3360;DHT22;1693;49.602;11.046;2023-07-28T02:38:08;17.00;99.90
3360;DHT22;1693;49.602;11.046;2023-07-28T02:40:35;16.90;99.90
3360;DHT22;1693;49.602;11.046;2023-07-28T02:43:02;16.90;99.90
3360;DHT22;1693;49.602;11.046;2023-07-28T02:45:29;16.90;99.90
3360;DHT22;1693;49.602;11.046;2023-07-28T02:47:56;16.90;99.90
3360;DHT22;1693;49.602;11.046;2023-07-28T02:50:23;16.90;99.90
3360;DHT22;1693;49.602;11.046;2023-07-28T02:52:51;16.90;99.90
3360;DHT22;1693;49.602;11.046;2023-07-28T02:55:18;16.90;99.90
3360;DHT22;1693;49.602;11.046;2023-07-28T02:57:45;16.90;99.90
3360;DHT22;1693;49.602;11.046;2023-07-28T03:00:14;16.90;99.90
3360;DHT22;1693;49.602;11.046;2023-07-28T03:02:41;16.90;99.90
3360;DHT22;1693;49.602;11.046;2023-07-28T03:05:08;16.90;99.90
3360;DHT22;1693;49.602;11.046;2023-07-28T03:07:35;16.90;99.90
3360;DHT22;1693;49.602;11.046;2023-07-28T03:10:04;16.90;99.90
3360;DHT22;1693;49.602;11.046;2023-07-28T03:12:31;17.00;99.90
3360;DHT22;1693;49.602;11.046;2023-07-28T03:14:58;17.00;99.90
3360;DHT22;1693;49.602;11.046;2023-07-28T03:17:25;17.00;99.90
3360;DHT22;1693;49.602;11.046;2023-07-28T03:19:52;17.10;99.90
3360;DHT22;1693;49.602;11.046;2023-07-28T03:22:19;17.10;99.90
3360;DHT22;1693;49.602;11.046;2023-07-28T03:24:46;17.10;99.90
3360;DHT22;1693;49.602;11.046;2023-07-28T03:27:14;17.10;99.90
3360;DHT22;1693;49.602;11.046;2023-07-28T03:29:42;17.10;99.90
3360;DHT22;1693;49.602;11.046;2023-07-28T03:32:09;17.20;99.90
3360;DHT22;1693;49.602;11.046;2023-07-28T03:34:36;17.10;99.90
3360;DHT22;1693;49.602;11.046;2023-07-28T03:37:03;17.20;99.90
3360;DHT22;1693;49.602;11.046;2023-07-28T03:39:31;17.20;99.90
3360;DHT22;1693;49.602;11.046;2023-07-28T03:41:58;17.10;99.90
3360;DHT22;1693;49.602;11.046;2023-07-28T03:44:26;17.20;99.90
3360;DHT22;1693;49.602;11.046;2023-07-28T03:46:53;17.10;99.90
3360;DHT22;1693;49.602;11.046;2023-07-28T03:49:20;17.10;99.90
3360;DHT22;1693;49.602;11.046;2023-07-28T03:51:47;17.10;99.90
3360;DHT22;1693;49.602;11.046;2023-07-28T03:54:14;17.10;99.90
3360;DHT22;1693;49.602;11.046;2023-07-28T03:56:41;17.10;99.90
3360;DHT22;1693;49.602;11.046;2023-07-28T03:59:08;17.00;99.90
3360;DHT22;1693;49.602;11.046;2023-07-28T04:01:37;17.00;99.90
3360;DHT22;1693;49.602;11.046;2023-07-28T04:04:04;17.00;99.90
3360;DHT22;1693;49.602;11.046;2023-07-28T04:06:41;17.10;99.90
3360;DHT22;1693;49.602;11.046;2023-07-28T04:09:08;17.10;99.90
3360;DHT22;1693;49.602;11.046;2023-07-28T04:11:35;17.20;99.90
3360;DHT22;1693;49.602;11.046;2023-07-28T04:14:02;17.20;99.90
3360;DHT22;1693;49.602;11.046;2023-07-28T04:16:29;17.20;99.90
3360;DHT22;1693;49.602;11.046;2023-07-28T04:18:58;17.30;99.90
3360;DHT22;1693;49.602;11.046;2023-07-28T04:21:25;17.00;99.90
3360;DHT22;1693;49.602;11.046;2023-07-28T04:23:52;17.10;99.90
3360;DHT22;1693;49.602;11.046;2023-07-28T04:26:19;17.20;99.90
3360;DHT22;1693;49.602;11.046;2023-07-28T04:28:46;17.20;99.90
3360;DHT22;1693;49.602;11.046;2023-07-28T04:31:13;17.30;99.90
3360;DHT22;1693;49.602;11.046;2023-07-28T04:33:41;17.30;99.90
3360;DHT22;1693;49.602;11.046;2023-07-28T04:36:09;17.20;99.90
3360;DHT22;1693;49.602;11.046;2023-07-28T04:38:36;17.30;99.90
3360;DHT22;1693;49.602;11.046;2023-07-28T04:41:03;17.30;99.90
3360;DHT22;1693;49.602;11.046;2023-07-28T04:43:30;17.30;99.90
3360;DHT22;1693;49.602;11.046;2023-07-28T04:45:57;17.40;99.90
3360;DHT22;1693;49.602;11.046;2023-07-28T04:48:24;17.40;99.90
3360;DHT22;1693;49.602;11.046;2023-07-28T04:50:51;17.40;99.90
3360;DHT22;1693;49.602;11.046;2023-07-28T04:53:20;17.30;99.90
3360;DHT22;1693;49.602;11.046;2023-07-28T04:55:47;17.30;99.90
3360;DHT22;1693;49.602;11.046;2023-07-28T04:58:13;17.30;99.90
3360;DHT22;1693;49.602;11.046;2023-07-28T05:00:41;17.30;99.90
3360;DHT22;1693;49.602;11.046;2023-07-28T05:03:08;17.30;99.90
3360;DHT22;1693;49.602;11.046;2023-07-28T05:05:34;17.30;99.90
3360;DHT22;1693;49.602;11.046;2023-07-28T05:08:02;17.40;99.90
3360;DHT22;1693;49.602;11.046;2023-07-28T05:10:30;17.40;99.90
3360;DHT22;1693;49.602;11.046;2023-07-28T05:12:57;17.40;99.90
3360;DHT22;1693;49.602;11.046;2023-07-28T05:15:24;17.40;99.90
3360;DHT22;1693;49.602;11.046;2023-07-28T05:17:51;17.40;99.90
3360;DHT22;1693;49.602;11.046;2023-07-28T05:20:18;17.50;99.90
3360;DHT22;1693;49.602;11.046;2023-07-28T05:22:45;17.50;99.90
3360;DHT22;1693;49.602;11.046;2023-07-28T05:25:12;17.50;99.90
3360;DHT22;1693;49.602;11.046;2023-07-28T05:27:41;17.40;99.90
3360;DHT22;1693;49.602;11.046;2023-07-28T05:30:08;17.40;99.90
3360;DHT22;1693;49.602;11.046;2023-07-28T05:32:36;17.60;99.90
3360;DHT22;1693;49.602;11.046;2023-07-28T05:35:03;17.60;99.90
3360;DHT22;1693;49.602;11.046;2023-07-28T05:37:30;17.70;99.90
3360;DHT22;1693;49.602;11.046;2023-07-28T05:39:57;17.80;99.90
3360;DHT22;1693;49.602;11.046;2023-07-28T05:42:25;17.80;99.90
3360;DHT22;1693;49.602;11.046;2023-07-28T10:36:14;23.10;99.90
3360;DHT22;1693;49.602;11.046;2023-07-28T10:51:05;23.30;99.90
3360;DHT22;1693;49.602;11.046;2023-07-28T10:53:34;23.10;99.90
3360;DHT22;1693;49.602;11.046;2023-07-28T10:56:02;23.00;99.90
3360;DHT22;1693;49.602;11.046;2023-07-28T10:58:31;23.00;99.90
3360;DHT22;1693;49.602;11.046;2023-07-28T11:01:00;23.30;99.90
3360;DHT22;1693;49.602;11.046;2023-07-28T11:03:28;23.70;99.90
3360;DHT22;1693;49.602;11.046;2023-07-28T11:05:55;23.60;99.90
3360;DHT22;1693;49.602;11.046;2023-07-28T11:08:23;23.40;99.90
3360;DHT22;1693;49.602;11.046;2023-07-28T11:10:52;23.50;99.90
3360;DHT22;1693;49.602;11.046;2023-07-28T11:13:19;23.10;99.90
3360;DHT22;1693;49.602;11.046;2023-07-28T11:15:46;22.70;99.90
3360;DHT22;1693;49.602;11.046;2023-07-28T11:18:15;22.80;99.90
3360;DHT22;1693;49.602;11.046;2023-07-28T11:20:42;23.10;99.90
3360;DHT22;1693;49.602;11.046;2023-07-28T11:23:13;23.90;99.90
3360;DHT22;1693;49.602;11.046;2023-07-28T11:25:41;24.00;99.90
3360;DHT22;1693;49.602;11.046;2023-07-28T11:28:11;23.90;99.90
3360;DHT22;1693;49.602;11.046;2023-07-28T11:30:39;23.90;99.90
3360;DHT22;1693;49.602;11.046;2023-07-28T11:33:09;23.80;99.90
3360;DHT22;1693;49.602;11.046;2023-07-28T11:35:38;23.60;99.90
3360;DHT22;1693;49.602;11.046;2023-07-28T11:38:06;23.60;99.90
3360;DHT22;1693;49.602;11.046;2023-07-28T11:40:33;23.50;99.90
3360;DHT22;1693;49.602;11.046;2023-07-28T11:43:01;23.70;99.90
3360;DHT22;1693;49.602;11.046;2023-07-28T11:45:30;23.90;99.90
3360;DHT22;1693;49.602;11.046;2023-07-28T11:47:58;24.00;99.90
3360;DHT22;1693;49.602;11.046;2023-07-28T11:50:26;24.50;99.90
3360;DHT22;1693;49.602;11.046;2023-07-28T11:52:53;24.80;99.90
3360;DHT22;1693;49.602;11.046;2023-07-28T11:55:21;24.90;99.90
3360;DHT22;1693;49.602;11.046;2023-07-28T11:57:49;24.80;99.90
3360;DHT22;1693;49.602;11.046;2023-07-28T12:00:18;24.80;99.90
3360;DHT22;1693;49.602;11.046;2023-07-28T12:03:03;25.40;99.90
3360;DHT22;1693;49.602;11.046;2023-07-28T12:05:31;26.10;99.90
3360;DHT22;1693;49.602;11.046;2023-07-28T12:07:59;26.20;99.90
3360;DHT22;1693;49.602;11.046;2023-07-28T12:10:25;26.90;99.90
3360;DHT22;1693;49.602;11.046;2023-07-28T12:12:53;27.20;99.90
3360;DHT22;1693;49.602;11.046;2023-07-28T12:15:22;26.80;99.90
3360;DHT22;1693;49.602;11.046;2023-07-28T12:18:08;26.20;99.90
3360;DHT22;1693;49.602;11.046;2023-07-28T12:20:37;25.90;99.90
3360;DHT22;1693;49.602;11.046;2023-07-28T12:23:05;25.50;99.90
3360;DHT22;1693;49.602;11.046;2023-07-28T12:25:33;24.90;99.90
3360;DHT22;1693;49.602;11.046;2023-07-28T12:28:00;25.00;99.90
3360;DHT22;1693;49.602;11.046;2023-07-28T12:30:27;25.00;99.90
3360;DHT22;1693;49.602;11.046;2023-07-28T12:32:55;25.70;99.90
3360;DHT22;1693;49.602;11.046;2023-07-28T12:35:23;26.60;99.90
3360;DHT22;1693;49.602;11.046;2023-07-28T12:40:18;28.50;99.90
3360;DHT22;1693;49.602;11.046;2023-07-28T12:42:46;28.40;99.90
3360;DHT22;1693;49.602;11.046;2023-07-28T12:45:13;28.10;99.90
3360;DHT22;1693;49.602;11.046;2023-07-28T12:47:40;28.00;99.90
3360;DHT22;1693;49.602;11.046;2023-07-28T12:50:09;28.90;99.90
3360;DHT22;1693;49.602;11.046;2023-07-28T12:52:39;29.30;99.90
3360;DHT22;1693;49.602;11.046;2023-07-28T12:55:06;30.60;99.90
3360;DHT22;1693;49.602;11.046;2023-07-28T12:57:33;29.20;99.90
3360;DHT22;1693;49.602;11.046;2023-07-28T13:00:00;28.70;99.90
3360;DHT22;1693;49.602;11.046;2023-07-28T13:02:32;28.70;99.90
3360;DHT22;1693;49.602;11.046;2023-07-28T13:04:59;28.40;99.90
3360;DHT22;1693;49.602;11.046;2023-07-28T13:07:26;27.60;99.90
3360;DHT22;1693;49.602;11.046;2023-07-28T13:09:56;26.30;99.90
3360;DHT22;1693;49.602;11.046;2023-07-28T13:12:23;26.10;99.90
3360;DHT22;1693;49.602;11.046;2023-07-28T13:14:50;25.80;99.90
3360;DHT22;1693;49.602;11.046;2023-07-28T13:17:17;25.50;99.90
3360;DHT22;1693;49.602;11.046;2023-07-28T13:19:44;24.90;99.90
3360;DHT22;1693;49.602;11.046;2023-07-28T13:22:11;24.50;99.90
3360;DHT22;1693;49.602;11.046;2023-07-28T13:24:38;24.50;99.90
3360;DHT22;1693;49.602;11.046;2023-07-28T13:27:08;24.70;99.90
3360;DHT22;1693;49.602;11.046;2023-07-28T13:29:35;24.60;99.90
3360;DHT22;1693;49.602;11.046;2023-07-28T13:32:02;24.40;99.90
3360;DHT22;1693;49.602;11.046;2023-07-28T13:34:29;24.20;99.90
3360;DHT22;1693;49.602;11.046;2023-07-28T13:36:56;24.30;99.90
3360;DHT22;1693;49.602;11.046;2023-07-28T13:39:23;24.30;99.90
3360;DHT22;1693;49.602;11.046;2023-07-28T13:41:50;24.70;99.90
3360;DHT22;1693;49.602;11.046;2023-07-28T13:44:21;25.30;99.90
3360;DHT22;1693;49.602;11.046;2023-07-28T13:46:48;25.80;99.90
3360;DHT22;1693;49.602;11.046;2023-07-28T13:49:15;25.60;99.90
3360;DHT22;1693;49.602;11.046;2023-07-28T13:51:42;25.60;99.90
3360;DHT22;1693;49.602;11.046;2023-07-28T13:54:10;25.80;99.90
3360;DHT22;1693;49.602;11.046;2023-07-28T13:56:37;26.10;99.90
3360;DHT22;1693;49.602;11.046;2023-07-28T13:59:04;26.50;99.90
3360;DHT22;1693;49.602;11.046;2023-07-28T14:01:33;26.90;99.90
3360;DHT22;1693;49.602;11.046;2023-07-28T14:04:00;26.50;99.90
3360;DHT22;1693;49.602;11.046;2023-07-28T14:06:27;26.40;99.90
3360;DHT22;1693;49.602;11.046;2023-07-28T14:08:54;26.30;99.90
3360;DHT22;1693;49.602;11.046;2023-07-28T14:11:21;26.20;99.90
3360;DHT22;1693;49.602;11.046;2023-07-28T14:13:48;26.10;99.90
3360;DHT22;1693;49.602;11.046;2023-07-28T14:16:14;25.70;99.90
3360;DHT22;1693;49.602;11.046;2023-07-28T14:18:43;25.50;99.90
3360;DHT22;1693;49.602;11.046;2023-07-28T14:21:13;25.30;99.90
3360;DHT22;1693;49.602;11.046;2023-07-28T14:23:40;25.20;99.90
3360;DHT22;1693;49.602;11.046;2023-07-28T14:26:08;25.20;99.90
3360;DHT22;1693;49.602;11.046;2023-07-28T14:28:35;25.10;99.90
3360;DHT22;1693;49.602;11.046;2023-07-28T14:31:02;25.10;99.90
3360;DHT22;1693;49.602;11.046;2023-07-28T14:33:29;25.00;99.90
3360;DHT22;1693;49.602;11.046;2023-07-28T14:35:58;25.10;99.90
3360;DHT22;1693;49.602;11.046;2023-07-28T14:38:25;25.00;99.90
3360;DHT22;1693;49.602;11.046;2023-07-28T14:40:52;24.90;99.90
3360;DHT22;1693;49.602;11.046;2023-07-28T14:43:19;24.70;99.90
3360;DHT22;1693;49.602;11.046;2023-07-28T14:45:48;24.70;99.90
3360;DHT22;1693;49.602;11.046;2023-07-28T14:48:15;24.80;99.90
3360;DHT22;1693;49.602;11.046;2023-07-28T14:50:42;25.00;99.90
3360;DHT22;1693;49.602;11.046;2023-07-28T14:53:38;25.20;99.90
3360;DHT22;1693;49.602;11.046;2023-07-28T14:56:05;25.40;99.90
3360;DHT22;1693;49.602;11.046;2023-07-28T14:58:33;25.40;99.90
3360;DHT22;1693;49.602;11.046;2023-07-28T15:01:00;25.30;99.90
3360;DHT22;1693;49.602;11.046;2023-07-28T15:03:29;25.50;99.90
3360;DHT22;1693;49.602;11.046;2023-07-28T15:05:57;25.30;99.90
3360;DHT22;1693;49.602;11.046;2023-07-28T15:08:24;25.10;99.90
3360;DHT22;1693;49.602;11.046;2023-07-28T15:10:53;24.90;99.90
3360;DHT22;1693;49.602;11.046;2023-07-28T15:13:20;24.80;99.90
3360;DHT22;1693;49.602;11.046;2023-07-28T15:15:48;24.70;99.90
3360;DHT22;1693;49.602;11.046;2023-07-28T15:18:15;24.80;99.90
3360;DHT22;1693;49.602;11.046;2023-07-28T15:20:43;24.90;99.90
3360;DHT22;1693;49.602;11.046;2023-07-28T15:23:11;24.80;99.90
3360;DHT22;1693;49.602;11.046;2023-07-28T15:25:38;24.80;99.90
3360;DHT22;1693;49.602;11.046;2023-07-28T15:28:09;24.70;99.90
3360;DHT22;1693;49.602;11.046;2023-07-28T15:30:37;24.80;99.90
3360;DHT22;1693;49.602;11.046;2023-07-28T15:33:04;24.80;99.90
3360;DHT22;1693;49.602;11.046;2023-07-28T15:35:31;24.70;99.90
3360;DHT22;1693;49.602;11.046;2023-07-28T15:37:58;24.60;99.90
3360;DHT22;1693;49.602;11.046;2023-07-28T15:40:25;24.30;99.90
3360;DHT22;1693;49.602;11.046;2023-07-28T15:42:52;24.30;99.90
3360;DHT22;1693;49.602;11.046;2023-07-28T15:45:21;24.10;99.90
3360;DHT22;1693;49.602;11.046;2023-07-28T15:47:48;23.90;99.90
3360;DHT22;1693;49.602;11.046;2023-07-28T15:50:15;23.70;99.90
3360;DHT22;1693;49.602;11.046;2023-07-28T15:52:42;23.50;99.90
3360;DHT22;1693;49.602;11.046;2023-07-28T15:55:09;23.60;99.90
3360;DHT22;1693;49.602;11.046;2023-07-28T15:57:36;23.30;99.90
3360;DHT22;1693;49.602;11.046;2023-07-28T16:00:04;23.30;99.90
3360;DHT22;1693;49.602;11.046;2023-07-28T16:02:33;23.30;99.90
3360;DHT22;1693;49.602;11.046;2023-07-28T16:05:00;23.20;99.90
3360;DHT22;1693;49.602;11.046;2023-07-28T16:07:27;23.00;99.90
3360;DHT22;1693;49.602;11.046;2023-07-28T16:09:56;22.90;99.90
3360;DHT22;1693;49.602;11.046;2023-07-28T16:12:23;22.70;99.90
3360;DHT22;1693;49.602;11.046;2023-07-28T16:14:51;22.40;99.90
3360;DHT22;1693;49.602;11.046;2023-07-28T16:17:20;22.10;99.90
3360;DHT22;1693;49.602;11.046;2023-07-28T16:19:48;21.70;99.90
3360;DHT22;1693;49.602;11.046;2023-07-28T16:22:15;21.10;99.90
3360;DHT22;1693;49.602;11.046;2023-07-28T16:24:43;20.60;99.90
3360;DHT22;1693;49.602;11.046;2023-07-28T16:27:10;20.30;99.90
3360;DHT22;1693;49.602;11.046;2023-07-28T16:29:37;20.10;99.90
3360;DHT22;1693;49.602;11.046;2023-07-28T16:32:04;19.90;99.90
3360;DHT22;1693;49.602;11.046;2023-07-28T16:34:32;19.80;99.90
3360;DHT22;1693;49.602;11.046;2023-07-28T16:37:00;19.70;99.90
3360;DHT22;1693;49.602;11.046;2023-07-28T16:39:27;19.60;99.90
3360;DHT22;1693;49.602;11.046;2023-07-28T16:41:54;19.60;99.90
3360;DHT22;1693;49.602;11.046;2023-07-28T16:44:21;19.60;99.90
3360;DHT22;1693;49.602;11.046;2023-07-28T16:46:48;19.60;99.90
3360;DHT22;1693;49.602;11.046;2023-07-28T16:49:15;19.60;99.90
3360;DHT22;1693;49.602;11.046;2023-07-28T16:51:42;19.60;99.90
3360;DHT22;1693;49.602;11.046;2023-07-28T16:54:10;19.50;99.90
3360;DHT22;1693;49.602;11.046;2023-07-28T16:56:37;19.50;99.90
3360;DHT22;1693;49.602;11.046;2023-07-28T16:59:07;19.50;99.90
3360;DHT22;1693;49.602;11.046;2023-07-28T17:01:34;19.60;99.90
3360;DHT22;1693;49.602;11.046;2023-07-28T17:04:01;19.70;99.90
3360;DHT22;1693;49.602;11.046;2023-07-28T17:06:28;19.70;99.90
3360;DHT22;1693;49.602;11.046;2023-07-28T17:08:56;19.70;99.90
3360;DHT22;1693;49.602;11.046;2023-07-28T17:11:24;19.70;99.90
3360;DHT22;1693;49.602;11.046;2023-07-28T17:13:51;19.70;99.90
3360;DHT22;1693;49.602;11.046;2023-07-28T17:16:18;19.70;99.90
3360;DHT22;1693;49.602;11.046;2023-07-28T17:18:45;19.70;99.90
3360;DHT22;1693;49.602;11.046;2023-07-28T17:21:12;19.60;99.90
3360;DHT22;1693;49.602;11.046;2023-07-28T17:23:39;19.60;99.90
3360;DHT22;1693;49.602;11.046;2023-07-28T17:26:06;19.60;99.90
3360;DHT22;1693;49.602;11.046;2023-07-28T17:28:35;19.50;99.90
3360;DHT22;1693;49.602;11.046;2023-07-28T17:31:02;19.50;99.90
3360;DHT22;1693;49.602;11.046;2023-07-28T17:33:29;19.40;99.90
3360;DHT22;1693;49.602;11.046;2023-07-28T17:35:58;19.40;99.90
3360;DHT22;1693;49.602;11.046;2023-07-28T17:38:26;19.40;99.90
3360;DHT22;1693;49.602;11.046;2023-07-28T17:40:54;19.50;99.90
3360;DHT22;1693;49.602;11.046;2023-07-28T17:43:21;19.40;99.90
3360;DHT22;1693;49.602;11.046;2023-07-28T17:45:51;19.40;99.90
3360;DHT22;1693;49.602;11.046;2023-07-28T17:48:18;19.40;99.90
3360;DHT22;1693;49.602;11.046;2023-07-28T17:50:45;19.30;99.90
3360;DHT22;1693;49.602;11.046;2023-07-28T17:53:12;19.30;99.90
3360;DHT22;1693;49.602;11.046;2023-07-28T17:55:39;19.30;99.90
3360;DHT22;1693;49.602;11.046;2023-07-28T17:58:06;19.30;99.90
3360;DHT22;1693;49.602;11.046;2023-07-28T18:00:33;19.30;99.90
3360;DHT22;1693;49.602;11.046;2023-07-28T18:03:01;19.30;99.90
3360;DHT22;1693;49.602;11.046;2023-07-28T18:05:29;19.30;99.90
3360;DHT22;1693;49.602;11.046;2023-07-28T18:07:56;19.30;99.90
3360;DHT22;1693;49.602;11.046;2023-07-28T18:10:23;19.30;99.90
3360;DHT22;1693;49.602;11.046;2023-07-28T18:12:50;19.20;99.90
3360;DHT22;1693;49.602;11.046;2023-07-28T18:15:17;19.20;99.90
3360;DHT22;1693;49.602;11.046;2023-07-28T18:17:44;19.20;99.90
3360;DHT22;1693;49.602;11.046;2023-07-28T18:20:13;19.20;99.90
3360;DHT22;1693;49.602;11.046;2023-07-28T18:22:40;19.20;99.90
3360;DHT22;1693;49.602;11.046;2023-07-28T18:25:07;19.10;99.90
3360;DHT22;1693;49.602;11.046;2023-07-28T18:27:34;19.10;99.90
3360;DHT22;1693;49.602;11.046;2023-07-28T18:30:01;19.00;99.90
3360;DHT22;1693;49.602;11.046;2023-07-28T18:32:29;19.00;99.90
3360;DHT22;1693;49.602;11.046;2023-07-28T18:34:56;19.00;99.90
3360;DHT22;1693;49.602;11.046;2023-07-28T18:37:24;19.00;99.90
3360;DHT22;1693;49.602;11.046;2023-07-28T18:39:52;19.00;99.90
3360;DHT22;1693;49.602;11.046;2023-07-28T18:42:21;18.90;99.90
3360;DHT22;1693;49.602;11.046;2023-07-28T18:44:48;18.90;99.90
3360;DHT22;1693;49.602;11.046;2023-07-28T18:47:16;18.90;99.90
3360;DHT22;1693;49.602;11.046;2023-07-28T18:49:44;18.90;99.90
3360;DHT22;1693;49.602;11.046;2023-07-28T18:52:12;18.90;99.90
3360;DHT22;1693;49.602;11.046;2023-07-28T18:54:41;18.90;99.90
3360;DHT22;1693;49.602;11.046;2023-07-28T18:57:08;18.90;99.90
3360;DHT22;1693;49.602;11.046;2023-07-28T18:59:35;18.80;99.90
3360;DHT22;1693;49.602;11.046;2023-07-28T19:02:02;18.90;99.90
3360;DHT22;1693;49.602;11.046;2023-07-28T19:04:29;18.80;99.90
3360;DHT22;1693;49.602;11.046;2023-07-28T19:06:57;18.80;99.90
3360;DHT22;1693;49.602;11.046;2023-07-28T19:09:24;18.90;99.90
3360;DHT22;1693;49.602;11.046;2023-07-28T19:11:52;18.90;99.90
3360;DHT22;1693;49.602;11.046;2023-07-28T19:14:20;18.90;99.90
3360;DHT22;1693;49.602;11.046;2023-07-28T19:16:47;18.90;99.90
3360;DHT22;1693;49.602;11.046;2023-07-28T19:19:14;18.80;99.90
3360;DHT22;1693;49.602;11.046;2023-07-28T19:21:41;18.80;99.90
3360;DHT22;1693;49.602;11.046;2023-07-28T19:24:08;18.80;99.90
3360;DHT22;1693;49.602;11.046;2023-07-28T19:26:35;18.70;99.90
3360;DHT22;1693;49.602;11.046;2023-07-28T19:29:03;18.80;99.90
3360;DHT22;1693;49.602;11.046;2023-07-28T19:31:32;18.90;99.90
3360;DHT22;1693;49.602;11.046;2023-07-28T19:34:00;18.90;99.90
3360;DHT22;1693;49.602;11.046;2023-07-28T19:36:27;19.00;99.90
3360;DHT22;1693;49.602;11.046;2023-07-28T19:38:55;18.90;99.90
3360;DHT22;1693;49.602;11.046;2023-07-28T19:41:23;19.00;99.90
3360;DHT22;1693;49.602;11.046;2023-07-28T19:43:50;18.90;99.90
3360;DHT22;1693;49.602;11.046;2023-07-28T19:46:19;18.90;99.90
3360;DHT22;1693;49.602;11.046;2023-07-28T19:48:45;18.90;99.90
3360;DHT22;1693;49.602;11.046;2023-07-28T19:51:13;18.90;99.90
3360;DHT22;1693;49.602;11.046;2023-07-28T19:53:39;18.90;99.90
3360;DHT22;1693;49.602;11.046;2023-07-28T19:56:06;18.80;99.90
3360;DHT22;1693;49.602;11.046;2023-07-28T19:58:33;18.90;99.90
3360;DHT22;1693;49.602;11.046;2023-07-28T20:01:02;18.90;99.90
3360;DHT22;1693;49.602;11.046;2023-07-28T20:03:30;18.90;99.90
3360;DHT22;1693;49.602;11.046;2023-07-28T20:05:57;18.90;99.90
3360;DHT22;1693;49.602;11.046;2023-07-28T20:08:24;18.90;99.90
3360;DHT22;1693;49.602;11.046;2023-07-28T20:10:51;18.90;99.90
3360;DHT22;1693;49.602;11.046;2023-07-28T20:13:18;18.90;99.90
3360;DHT22;1693;49.602;11.046;2023-07-28T20:15:45;18.90;99.90
3360;DHT22;1693;49.602;11.046;2023-07-28T20:18:18;18.80;99.90
3360;DHT22;1693;49.602;11.046;2023-07-28T20:20:47;18.80;99.90
3360;DHT22;1693;49.602;11.046;2023-07-28T20:23:17;18.90;99.90
3360;DHT22;1693;49.602;11.046;2023-07-28T20:25:44;18.80;99.90
3360;DHT22;1693;49.602;11.046;2023-07-28T20:28:11;18.80;99.90
3360;DHT22;1693;49.602;11.046;2023-07-28T20:30:38;18.80;99.90
3360;DHT22;1693;49.602;11.046;2023-07-28T20:33:05;18.90;99.90
3360;DHT22;1693;49.602;11.046;2023-07-28T20:35:32;18.90;99.90
3360;DHT22;1693;49.602;11.046;2023-07-28T20:38:00;18.90;99.90
3360;DHT22;1693;49.602;11.046;2023-07-28T20:40:28;18.90;99.90
3360;DHT22;1693;49.602;11.046;2023-07-28T20:42:55;18.90;99.90
3360;DHT22;1693;49.602;11.046;2023-07-28T20:45:22;19.00;99.90
3360;DHT22;1693;49.602;11.046;2023-07-28T20:47:50;19.00;99.90
3360;DHT22;1693;49.602;11.046;2023-07-28T20:50:17;19.00;99.90
3360;DHT22;1693;49.602;11.046;2023-07-28T20:52:44;19.00;99.90
3360;DHT22;1693;49.602;11.046;2023-07-28T20:55:13;19.10;99.90